Terminal Aerodrome Forecast
Issued by NWS

Home | Current Version | Previous Version | Text Only | Print | Product List | Glossary On
Versions: 1 2 3 4 5 6 7 8 9 10 11 12 13 14 15 16 17 18 19 20 21 22 23 24 25 26 27 28
251
FTUS41 KBUF 242338 AAB
TAFIAG
TAF AMD
KIAG 242338Z 2500/2524 29006KT P6SM BKN015
     FM251300 25006KT P6SM BKN007
     FM251700 24007KT P6SM BKN015
     FM251900 23007KT P6SM BKN070
     FM252300 VRB03KT P6SM OVC050=

USA.gov is the U.S. government's official web portal to all federal, state and local government web resources and services.